sensor_id;sensor_type;location;lat;lon;timestamp;P1;durP1;ratioP1;P2;durP2;ratioP2
71166;SDS011;58864;45.928;20.078;2022-07-04T00:02:18;6.47;;;2.13;;
71166;SDS011;58864;45.928;20.078;2022-07-04T00:04:42;5.35;;;2.00;;
71166;SDS011;58864;45.928;20.078;2022-07-04T00:07:07;6.20;;;2.80;;
71166;SDS011;58864;45.928;20.078;2022-07-04T00:09:31;6.47;;;2.30;;
71166;SDS011;58864;45.928;20.078;2022-07-04T00:11:55;5.50;;;2.10;;
71166;SDS011;58864;45.928;20.078;2022-07-04T00:14:20;5.47;;;2.23;;
71166;SDS011;58864;45.928;20.078;2022-07-04T00:16:44;4.43;;;1.90;;
71166;SDS011;58864;45.928;20.078;2022-07-04T00:19:09;5.93;;;2.57;;
71166;SDS011;58864;45.928;20.078;2022-07-04T00:21:33;6.10;;;2.67;;
71166;SDS011;58864;45.928;20.078;2022-07-04T00:23:58;6.70;;;2.90;;
71166;SDS011;58864;45.928;20.078;2022-07-04T00:26:23;6.93;;;2.47;;
71166;SDS011;58864;45.928;20.078;2022-07-04T00:28:47;6.13;;;2.53;;
71166;SDS011;58864;45.928;20.078;2022-07-04T00:31:11;6.15;;;2.25;;
71166;SDS011;58864;45.928;20.078;2022-07-04T00:33:36;9.43;;;2.77;;
71166;SDS011;58864;45.928;20.078;2022-07-04T00:36:00;5.47;;;2.23;;
71166;SDS011;58864;45.928;20.078;2022-07-04T00:38:25;6.85;;;2.13;;
71166;SDS011;58864;45.928;20.078;2022-07-04T00:40:49;5.17;;;2.30;;
71166;SDS011;58864;45.928;20.078;2022-07-04T00:43:20;5.20;;;2.10;;
71166;SDS011;58864;45.928;20.078;2022-07-04T00:45:46;5.95;;;2.22;;
71166;SDS011;58864;45.928;20.078;2022-07-04T00:48:10;5.50;;;2.00;;
71166;SDS011;58864;45.928;20.078;2022-07-04T00:50:35;6.22;;;1.98;;
71166;SDS011;58864;45.928;20.078;2022-07-04T00:52:59;5.00;;;2.47;;
71166;SDS011;58864;45.928;20.078;2022-07-04T00:55:24;5.50;;;2.10;;
71166;SDS011;58864;45.928;20.078;2022-07-04T00:57:49;5.23;;;2.20;;
71166;SDS011;58864;45.928;20.078;2022-07-04T01:00:13;5.87;;;2.43;;
71166;SDS011;58864;45.928;20.078;2022-07-04T01:02:38;5.60;;;2.13;;
71166;SDS011;58864;45.928;20.078;2022-07-04T01:05:03;5.70;;;2.40;;
71166;SDS011;58864;45.928;20.078;2022-07-04T01:07:27;5.68;;;2.30;;
71166;SDS011;58864;45.928;20.078;2022-07-04T01:09:52;6.87;;;2.83;;
71166;SDS011;58864;45.928;20.078;2022-07-04T01:12:27;5.95;;;2.30;;
71166;SDS011;58864;45.928;20.078;2022-07-04T01:14:52;5.60;;;2.37;;
71166;SDS011;58864;45.928;20.078;2022-07-04T01:17:16;7.55;;;2.58;;
71166;SDS011;58864;45.928;20.078;2022-07-04T01:19:41;6.20;;;2.47;;
71166;SDS011;58864;45.928;20.078;2022-07-04T01:22:05;9.50;;;2.30;;
71166;SDS011;58864;45.928;20.078;2022-07-04T01:24:33;6.07;;;2.50;;
71166;SDS011;58864;45.928;20.078;2022-07-04T01:26:57;7.03;;;2.20;;
71166;SDS011;58864;45.928;20.078;2022-07-04T01:29:22;6.00;;;2.27;;
71166;SDS011;58864;45.928;20.078;2022-07-04T01:31:46;4.90;;;2.03;;
71166;SDS011;58864;45.928;20.078;2022-07-04T01:34:10;5.13;;;2.20;;
71166;SDS011;58864;45.928;20.078;2022-07-04T01:36:35;5.90;;;2.70;;
71166;SDS011;58864;45.928;20.078;2022-07-04T01:39:01;5.03;;;2.23;;
71166;SDS011;58864;45.928;20.078;2022-07-04T01:41:26;7.05;;;2.38;;
71166;SDS011;58864;45.928;20.078;2022-07-04T01:43:50;12.03;;;3.00;;
71166;SDS011;58864;45.928;20.078;2022-07-04T01:46:14;9.38;;;2.33;;
71166;SDS011;58864;45.928;20.078;2022-07-04T01:48:39;5.17;;;2.13;;
71166;SDS011;58864;45.928;20.078;2022-07-04T01:51:03;5.23;;;2.33;;
71166;SDS011;58864;45.928;20.078;2022-07-04T01:53:28;8.27;;;2.37;;
71166;SDS011;58864;45.928;20.078;2022-07-04T01:55:52;8.27;;;2.40;;
71166;SDS011;58864;45.928;20.078;2022-07-04T01:58:17;8.70;;;2.65;;
71166;SDS011;58864;45.928;20.078;2022-07-04T02:00:41;6.43;;;2.20;;
71166;SDS011;58864;45.928;20.078;2022-07-04T02:03:28;6.10;;;2.20;;
71166;SDS011;58864;45.928;20.078;2022-07-04T02:05:53;7.07;;;2.30;;
71166;SDS011;58864;45.928;20.078;2022-07-04T02:08:17;5.53;;;2.33;;
71166;SDS011;58864;45.928;20.078;2022-07-04T02:10:42;6.50;;;2.70;;
71166;SDS011;58864;45.928;20.078;2022-07-04T02:13:06;10.50;;;2.60;;
71166;SDS011;58864;45.928;20.078;2022-07-04T02:15:31;5.40;;;1.93;;
71166;SDS011;58864;45.928;20.078;2022-07-04T02:18:01;4.65;;;1.77;;
71166;SDS011;58864;45.928;20.078;2022-07-04T02:20:29;6.75;;;2.80;;
71166;SDS011;58864;45.928;20.078;2022-07-04T02:22:54;5.77;;;2.00;;
71166;SDS011;58864;45.928;20.078;2022-07-04T02:25:18;5.15;;;1.95;;
71166;SDS011;58864;45.928;20.078;2022-07-04T02:27:43;7.03;;;2.07;;
71166;SDS011;58864;45.928;20.078;2022-07-04T02:30:07;5.60;;;2.08;;
71166;SDS011;58864;45.928;20.078;2022-07-04T02:32:32;9.63;;;2.93;;
71166;SDS011;58864;45.928;20.078;2022-07-04T02:34:56;4.88;;;2.28;;
71166;SDS011;58864;45.928;20.078;2022-07-04T02:37:21;6.40;;;2.30;;
71166;SDS011;58864;45.928;20.078;2022-07-04T02:39:45;5.10;;;1.80;;
71166;SDS011;58864;45.928;20.078;2022-07-04T02:42:10;6.03;;;2.37;;
71166;SDS011;58864;45.928;20.078;2022-07-04T02:44:34;7.80;;;2.33;;
71166;SDS011;58864;45.928;20.078;2022-07-04T02:46:59;8.87;;;2.63;;
71166;SDS011;58864;45.928;20.078;2022-07-04T02:49:24;6.40;;;2.60;;
71166;SDS011;58864;45.928;20.078;2022-07-04T02:51:48;5.87;;;2.23;;
71166;SDS011;58864;45.928;20.078;2022-07-04T02:54:13;6.83;;;2.10;;
71166;SDS011;58864;45.928;20.078;2022-07-04T02:56:37;4.82;;;2.00;;
71166;SDS011;58864;45.928;20.078;2022-07-04T02:59:02;5.83;;;2.33;;
71166;SDS011;58864;45.928;20.078;2022-07-04T03:01:26;6.63;;;2.70;;
71166;SDS011;58864;45.928;20.078;2022-07-04T03:03:51;4.50;;;1.80;;
71166;SDS011;58864;45.928;20.078;2022-07-04T03:06:15;6.20;;;1.90;;
71166;SDS011;58864;45.928;20.078;2022-07-04T03:08:40;6.15;;;2.22;;
71166;SDS011;58864;45.928;20.078;2022-07-04T03:11:05;5.40;;;2.10;;
71166;SDS011;58864;45.928;20.078;2022-07-04T03:13:30;6.13;;;1.75;;
71166;SDS011;58864;45.928;20.078;2022-07-04T03:15:54;5.13;;;2.00;;
71166;SDS011;58864;45.928;20.078;2022-07-04T03:18:19;4.97;;;2.03;;
71166;SDS011;58864;45.928;20.078;2022-07-04T03:20:43;6.05;;;1.75;;
71166;SDS011;58864;45.928;20.078;2022-07-04T03:23:08;4.93;;;1.67;;
71166;SDS011;58864;45.928;20.078;2022-07-04T03:25:33;4.37;;;1.67;;
71166;SDS011;58864;45.928;20.078;2022-07-04T03:27:58;5.57;;;1.83;;
71166;SDS011;58864;45.928;20.078;2022-07-04T03:30:22;6.88;;;2.10;;
71166;SDS011;58864;45.928;20.078;2022-07-04T03:32:47;5.47;;;2.07;;
71166;SDS011;58864;45.928;20.078;2022-07-04T03:35:11;5.73;;;2.00;;
71166;SDS011;58864;45.928;20.078;2022-07-04T03:37:35;5.23;;;2.00;;
71166;SDS011;58864;45.928;20.078;2022-07-04T03:40:00;4.83;;;1.93;;
71166;SDS011;58864;45.928;20.078;2022-07-04T03:42:24;5.50;;;2.20;;
71166;SDS011;58864;45.928;20.078;2022-07-04T03:44:49;5.63;;;2.27;;
71166;SDS011;58864;45.928;20.078;2022-07-04T03:47:13;5.40;;;2.37;;
71166;SDS011;58864;45.928;20.078;2022-07-04T03:49:38;5.72;;;2.03;;
71166;SDS011;58864;45.928;20.078;2022-07-04T03:52:02;6.47;;;2.43;;
71166;SDS011;58864;45.928;20.078;2022-07-04T03:54:27;8.43;;;1.98;;
71166;SDS011;58864;45.928;20.078;2022-07-04T03:56:52;6.22;;;2.47;;
71166;SDS011;58864;45.928;20.078;2022-07-04T03:59:17;9.47;;;2.37;;
71166;SDS011;58864;45.928;20.078;2022-07-04T04:01:41;7.07;;;2.53;;
71166;SDS011;58864;45.928;20.078;2022-07-04T04:04:06;5.13;;;2.03;;
71166;SDS011;58864;45.928;20.078;2022-07-04T04:06:49;4.93;;;1.60;;
71166;SDS011;58864;45.928;20.078;2022-07-04T04:09:13;6.80;;;1.80;;
71166;SDS011;58864;45.928;20.078;2022-07-04T04:11:42;5.60;;;2.08;;
71166;SDS011;58864;45.928;20.078;2022-07-04T04:14:07;4.45;;;1.70;;
71166;SDS011;58864;45.928;20.078;2022-07-04T04:16:31;4.67;;;1.93;;
71166;SDS011;58864;45.928;20.078;2022-07-04T04:18:56;5.72;;;2.20;;
71166;SDS011;58864;45.928;20.078;2022-07-04T04:21:21;8.50;;;2.30;;
71166;SDS011;58864;45.928;20.078;2022-07-04T04:23:45;6.45;;;2.80;;
71166;SDS011;58864;45.928;20.078;2022-07-04T04:26:10;5.57;;;1.83;;
71166;SDS011;58864;45.928;20.078;2022-07-04T04:28:35;4.80;;;1.83;;
71166;SDS011;58864;45.928;20.078;2022-07-04T04:30:59;5.53;;;2.10;;
71166;SDS011;58864;45.928;20.078;2022-07-04T04:33:24;5.10;;;2.00;;
71166;SDS011;58864;45.928;20.078;2022-07-04T04:35:48;6.50;;;2.00;;
71166;SDS011;58864;45.928;20.078;2022-07-04T04:38:12;4.40;;;1.80;;
71166;SDS011;58864;45.928;20.078;2022-07-04T04:40:37;8.23;;;1.73;;
71166;SDS011;58864;45.928;20.078;2022-07-04T04:43:01;5.53;;;1.77;;
71166;SDS011;58864;45.928;20.078;2022-07-04T04:45:26;8.95;;;1.88;;
71166;SDS011;58864;45.928;20.078;2022-07-04T04:47:50;4.63;;;1.67;;
71166;SDS011;58864;45.928;20.078;2022-07-04T04:50:17;6.13;;;2.50;;
71166;SDS011;58864;45.928;20.078;2022-07-04T04:52:41;4.77;;;1.80;;
71166;SDS011;58864;45.928;20.078;2022-07-04T04:55:06;6.93;;;1.97;;
71166;SDS011;58864;45.928;20.078;2022-07-04T04:57:31;5.78;;;1.95;;
71166;SDS011;58864;45.928;20.078;2022-07-04T04:59:55;8.57;;;1.77;;
71166;SDS011;58864;45.928;20.078;2022-07-04T05:02:20;12.40;;;2.17;;
71166;SDS011;58864;45.928;20.078;2022-07-04T05:04:44;4.57;;;1.50;;
71166;SDS011;58864;45.928;20.078;2022-07-04T05:07:09;6.73;;;1.70;;
71166;SDS011;58864;45.928;20.078;2022-07-04T05:09:33;9.30;;;1.63;;
71166;SDS011;58864;45.928;20.078;2022-07-04T05:11:58;6.03;;;2.55;;
71166;SDS011;58864;45.928;20.078;2022-07-04T05:14:22;5.07;;;1.70;;
71166;SDS011;58864;45.928;20.078;2022-07-04T05:16:46;9.37;;;1.57;;
71166;SDS011;58864;45.928;20.078;2022-07-04T05:19:11;4.73;;;1.50;;
71166;SDS011;58864;45.928;20.078;2022-07-04T05:21:36;4.47;;;1.70;;
71166;SDS011;58864;45.928;20.078;2022-07-04T05:24:00;3.50;;;1.37;;
71166;SDS011;58864;45.928;20.078;2022-07-04T05:26:25;7.45;;;1.52;;
71166;SDS011;58864;45.928;20.078;2022-07-04T05:28:50;6.80;;;1.70;;
71166;SDS011;58864;45.928;20.078;2022-07-04T05:31:15;3.92;;;1.40;;
71166;SDS011;58864;45.928;20.078;2022-07-04T05:33:39;5.03;;;1.80;;
71166;SDS011;58864;45.928;20.078;2022-07-04T05:36:04;4.72;;;1.73;;
71166;SDS011;58864;45.928;20.078;2022-07-04T05:38:29;4.40;;;1.33;;
71166;SDS011;58864;45.928;20.078;2022-07-04T05:40:53;5.20;;;1.87;;
71166;SDS011;58864;45.928;20.078;2022-07-04T05:43:17;5.72;;;1.75;;
71166;SDS011;58864;45.928;20.078;2022-07-04T05:45:42;5.40;;;1.77;;
71166;SDS011;58864;45.928;20.078;2022-07-04T05:48:06;3.67;;;1.30;;
71166;SDS011;58864;45.928;20.078;2022-07-04T05:50:31;5.75;;;1.40;;
71166;SDS011;58864;45.928;20.078;2022-07-04T05:52:55;4.43;;;1.87;;
71166;SDS011;58864;45.928;20.078;2022-07-04T05:55:20;3.73;;;1.43;;
71166;SDS011;58864;45.928;20.078;2022-07-04T05:57:44;7.83;;;1.63;;
71166;SDS011;58864;45.928;20.078;2022-07-04T06:00:08;4.20;;;1.33;;
71166;SDS011;58864;45.928;20.078;2022-07-04T06:02:35;5.63;;;1.63;;
71166;SDS011;58864;45.928;20.078;2022-07-04T06:05:00;6.93;;;1.70;;
71166;SDS011;58864;45.928;20.078;2022-07-04T06:07:24;7.37;;;1.70;;
71166;SDS011;58864;45.928;20.078;2022-07-04T06:09:49;3.70;;;1.30;;
71166;SDS011;58864;45.928;20.078;2022-07-04T06:12:13;3.87;;;1.50;;
71166;SDS011;58864;45.928;20.078;2022-07-04T06:14:37;3.67;;;1.20;;
71166;SDS011;58864;45.928;20.078;2022-07-04T06:17:02;3.90;;;1.33;;
71166;SDS011;58864;45.928;20.078;2022-07-04T06:19:27;4.00;;;1.25;;
71166;SDS011;58864;45.928;20.078;2022-07-04T06:21:51;3.00;;;1.10;;
71166;SDS011;58864;45.928;20.078;2022-07-04T06:24:15;5.13;;;1.30;;
71166;SDS011;58864;45.928;20.078;2022-07-04T06:26:40;4.90;;;1.15;;
71166;SDS011;58864;45.928;20.078;2022-07-04T06:29:04;4.63;;;1.43;;
71166;SDS011;58864;45.928;20.078;2022-07-04T06:31:29;4.33;;;1.30;;
71166;SDS011;58864;45.928;20.078;2022-07-04T06:33:53;6.03;;;2.23;;
71166;SDS011;58864;45.928;20.078;2022-07-04T06:36:36;3.70;;;1.38;;
71166;SDS011;58864;45.928;20.078;2022-07-04T06:39:01;3.93;;;1.30;;
71166;SDS011;58864;45.928;20.078;2022-07-04T06:41:25;4.50;;;1.25;;
71166;SDS011;58864;45.928;20.078;2022-07-04T06:43:50;4.40;;;1.40;;
71166;SDS011;58864;45.928;20.078;2022-07-04T06:46:14;4.40;;;1.10;;
71166;SDS011;58864;45.928;20.078;2022-07-04T06:48:39;4.43;;;1.25;;
71166;SDS011;58864;45.928;20.078;2022-07-04T06:51:03;3.43;;;1.10;;
71166;SDS011;58864;45.928;20.078;2022-07-04T06:53:28;3.83;;;1.10;;
71166;SDS011;58864;45.928;20.078;2022-07-04T06:55:52;3.45;;;1.33;;
71166;SDS011;58864;45.928;20.078;2022-07-04T06:58:17;3.83;;;0.93;;
71166;SDS011;58864;45.928;20.078;2022-07-04T07:00:42;4.78;;;1.20;;
71166;SDS011;58864;45.928;20.078;2022-07-04T07:03:08;2.97;;;1.05;;
71166;SDS011;58864;45.928;20.078;2022-07-04T07:05:32;2.60;;;1.00;;
71166;SDS011;58864;45.928;20.078;2022-07-04T07:07:57;3.50;;;1.20;;
71166;SDS011;58864;45.928;20.078;2022-07-04T07:10:21;4.32;;;1.20;;
71166;SDS011;58864;45.928;20.078;2022-07-04T07:12:46;3.53;;;1.20;;
71166;SDS011;58864;45.928;20.078;2022-07-04T07:15:11;3.25;;;1.25;;
71166;SDS011;58864;45.928;20.078;2022-07-04T07:17:35;2.60;;;0.80;;
71166;SDS011;58864;45.928;20.078;2022-07-04T07:20:00;3.20;;;1.00;;
71166;SDS011;58864;45.928;20.078;2022-07-04T07:22:24;3.33;;;1.10;;
71166;SDS011;58864;45.928;20.078;2022-07-04T07:24:49;2.60;;;0.80;;
71166;SDS011;58864;45.928;20.078;2022-07-04T07:27:13;3.33;;;0.98;;
71166;SDS011;58864;45.928;20.078;2022-07-04T07:29:38;4.00;;;1.27;;
71166;SDS011;58864;45.928;20.078;2022-07-04T07:32:03;3.75;;;1.40;;
71166;SDS011;58864;45.928;20.078;2022-07-04T07:34:29;3.43;;;1.20;;
71166;SDS011;58864;45.928;20.078;2022-07-04T07:36:54;3.03;;;1.10;;
71166;SDS011;58864;45.928;20.078;2022-07-04T07:39:18;3.70;;;1.33;;
71166;SDS011;58864;45.928;20.078;2022-07-04T07:41:43;3.65;;;1.42;;
71166;SDS011;58864;45.928;20.078;2022-07-04T07:44:08;3.23;;;1.00;;
71166;SDS011;58864;45.928;20.078;2022-07-04T07:46:32;4.10;;;1.30;;
71166;SDS011;58864;45.928;20.078;2022-07-04T07:48:57;3.03;;;1.07;;
71166;SDS011;58864;45.928;20.078;2022-07-04T07:51:21;3.30;;;1.10;;
71166;SDS011;58864;45.928;20.078;2022-07-04T07:53:46;4.00;;;1.20;;
71166;SDS011;58864;45.928;20.078;2022-07-04T07:56:10;4.50;;;1.17;;
71166;SDS011;58864;45.928;20.078;2022-07-04T07:58:35;4.53;;;1.23;;
71166;SDS011;58864;45.928;20.078;2022-07-04T08:00:59;3.50;;;1.35;;
71166;SDS011;58864;45.928;20.078;2022-07-04T08:03:26;3.43;;;1.27;;
71166;SDS011;58864;45.928;20.078;2022-07-04T08:06:09;3.60;;;1.13;;
71166;SDS011;58864;45.928;20.078;2022-07-04T08:08:34;2.78;;;0.90;;
71166;SDS011;58864;45.928;20.078;2022-07-04T08:10:58;3.13;;;1.20;;
71166;SDS011;58864;45.928;20.078;2022-07-04T08:13:23;3.40;;;1.00;;
71166;SDS011;58864;45.928;20.078;2022-07-04T08:15:47;3.33;;;1.27;;
71166;SDS011;58864;45.928;20.078;2022-07-04T08:18:12;2.90;;;1.00;;
71166;SDS011;58864;45.928;20.078;2022-07-04T08:20:36;3.63;;;1.15;;
71166;SDS011;58864;45.928;20.078;2022-07-04T08:23:00;3.00;;;0.93;;
71166;SDS011;58864;45.928;20.078;2022-07-04T08:25:25;3.03;;;0.97;;
71166;SDS011;58864;45.928;20.078;2022-07-04T08:27:49;2.80;;;1.05;;
71166;SDS011;58864;45.928;20.078;2022-07-04T08:30:14;3.27;;;1.00;;
71166;SDS011;58864;45.928;20.078;2022-07-04T08:32:38;3.00;;;1.00;;
71166;SDS011;58864;45.928;20.078;2022-07-04T08:35:04;2.40;;;0.85;;
71166;SDS011;58864;45.928;20.078;2022-07-04T08:37:29;2.88;;;0.95;;
71166;SDS011;58864;45.928;20.078;2022-07-04T08:39:53;2.60;;;0.90;;
71166;SDS011;58864;45.928;20.078;2022-07-04T08:42:18;3.22;;;1.10;;
71166;SDS011;58864;45.928;20.078;2022-07-04T08:44:53;4.43;;;0.98;;
71166;SDS011;58864;45.928;20.078;2022-07-04T08:47:20;3.10;;;1.10;;
71166;SDS011;58864;45.928;20.078;2022-07-04T08:49:52;3.07;;;1.10;;
71166;SDS011;58864;45.928;20.078;2022-07-04T08:52:23;3.58;;;1.15;;
71166;SDS011;58864;45.928;20.078;2022-07-04T08:54:54;4.60;;;1.20;;
71166;SDS011;58864;45.928;20.078;2022-07-04T08:57:38;3.42;;;1.40;;
71166;SDS011;58864;45.928;20.078;2022-07-04T09:00:21;2.90;;;1.00;;
71166;SDS011;58864;45.928;20.078;2022-07-04T09:02:45;2.87;;;1.03;;
71166;SDS011;58864;45.928;20.078;2022-07-04T09:05:10;2.60;;;0.90;;
71166;SDS011;58864;45.928;20.078;2022-07-04T09:07:34;4.22;;;1.10;;
71166;SDS011;58864;45.928;20.078;2022-07-04T09:09:59;3.30;;;1.20;;
71166;SDS011;58864;45.928;20.078;2022-07-04T09:12:24;2.88;;;1.02;;
71166;SDS011;58864;45.928;20.078;2022-07-04T09:14:49;2.70;;;1.00;;
71166;SDS011;58864;45.928;20.078;2022-07-04T09:17:13;3.83;;;1.42;;
71166;SDS011;58864;45.928;20.078;2022-07-04T09:19:38;2.70;;;1.00;;
71166;SDS011;58864;45.928;20.078;2022-07-04T09:22:03;3.03;;;1.00;;
71166;SDS011;58864;45.928;20.078;2022-07-04T09:24:45;3.27;;;1.20;;
71166;SDS011;58864;45.928;20.078;2022-07-04T09:27:10;3.60;;;1.23;;
71166;SDS011;58864;45.928;20.078;2022-07-04T09:29:36;3.43;;;1.20;;
71166;SDS011;58864;45.928;20.078;2022-07-04T09:32:05;3.53;;;1.30;;
71166;SDS011;58864;45.928;20.078;2022-07-04T09:34:29;3.15;;;1.17;;
71166;SDS011;58864;45.928;20.078;2022-07-04T09:36:54;3.00;;;0.97;;
71166;SDS011;58864;45.928;20.078;2022-07-04T09:39:20;3.47;;;1.35;;
71166;SDS011;58864;45.928;20.078;2022-07-04T09:44:20;3.03;;;1.10;;
71166;SDS011;58864;45.928;20.078;2022-07-04T09:46:45;2.92;;;1.10;;
71166;SDS011;58864;45.928;20.078;2022-07-04T09:49:10;3.30;;;1.20;;
71166;SDS011;58864;45.928;20.078;2022-07-04T09:51:45;3.03;;;1.20;;
71166;SDS011;58864;45.928;20.078;2022-07-04T09:54:23;3.13;;;1.43;;
71166;SDS011;58864;45.928;20.078;2022-07-04T09:56:56;2.67;;;1.05;;
71166;SDS011;58864;45.928;20.078;2022-07-04T09:59:25;3.30;;;1.30;;
71166;SDS011;58864;45.928;20.078;2022-07-04T10:01:51;3.42;;;1.10;;
71166;SDS011;58864;45.928;20.078;2022-07-04T10:04:16;3.07;;;1.30;;
71166;SDS011;58864;45.928;20.078;2022-07-04T10:06:41;4.15;;;1.67;;
71166;SDS011;58864;45.928;20.078;2022-07-04T10:09:16;2.97;;;1.00;;
71166;SDS011;58864;45.928;20.078;2022-07-04T10:11:42;3.58;;;1.00;;
71166;SDS011;58864;45.928;20.078;2022-07-04T10:14:10;5.68;;;1.42;;
71166;SDS011;58864;45.928;20.078;2022-07-04T10:16:35;3.72;;;1.40;;
71166;SDS011;58864;45.928;20.078;2022-07-04T10:19:01;3.13;;;1.20;;
71166;SDS011;58864;45.928;20.078;2022-07-04T10:21:26;2.97;;;1.20;;
71166;SDS011;58864;45.928;20.078;2022-07-04T10:23:51;3.55;;;1.33;;
71166;SDS011;58864;45.928;20.078;2022-07-04T10:26:19;3.83;;;1.60;;
71166;SDS011;58864;45.928;20.078;2022-07-04T10:28:45;3.03;;;1.20;;
71166;SDS011;58864;45.928;20.078;2022-07-04T10:31:11;3.40;;;1.30;;
71166;SDS011;58864;45.928;20.078;2022-07-04T10:33:37;4.30;;;1.20;;
71166;SDS011;58864;45.928;20.078;2022-07-04T10:36:02;2.90;;;1.20;;
71166;SDS011;58864;45.928;20.078;2022-07-04T10:38:28;2.80;;;1.07;;
71166;SDS011;58864;45.928;20.078;2022-07-04T10:40:55;3.60;;;1.20;;
71166;SDS011;58864;45.928;20.078;2022-07-04T10:45:54;2.95;;;1.20;;
71166;SDS011;58864;45.928;20.078;2022-07-04T10:48:22;5.73;;;1.07;;
71166;SDS011;58864;45.928;20.078;2022-07-04T10:51:03;2.78;;;0.95;;
71166;SDS011;58864;45.928;20.078;2022-07-04T10:53:31;3.00;;;1.08;;
71166;SDS011;58864;45.928;20.078;2022-07-04T10:56:34;3.25;;;1.17;;
71166;SDS011;58864;45.928;20.078;2022-07-04T10:58:51;2.67;;;1.00;;
71166;SDS011;58864;45.928;20.078;2022-07-04T11:01:16;6.97;;;1.20;;
71166;SDS011;58864;45.928;20.078;2022-07-04T11:03:44;2.70;;;1.00;;
71166;SDS011;58864;45.928;20.078;2022-07-04T11:06:45;4.72;;;1.20;;
71166;SDS011;58864;45.928;20.078;2022-07-04T11:09:36;3.80;;;1.47;;
71166;SDS011;58864;45.928;20.078;2022-07-04T11:11:54;3.38;;;1.30;;
71166;SDS011;58864;45.928;20.078;2022-07-04T11:17:19;3.50;;;1.20;;
71166;SDS011;58864;45.928;20.078;2022-07-04T11:19:45;3.28;;;1.15;;
71166;SDS011;58864;45.928;20.078;2022-07-04T11:22:09;3.20;;;1.20;;
71166;SDS011;58864;45.928;20.078;2022-07-04T11:24:35;5.40;;;1.30;;
71166;SDS011;58864;45.928;20.078;2022-07-04T11:26:59;3.30;;;1.40;;
71166;SDS011;58864;45.928;20.078;2022-07-04T11:29:24;3.22;;;1.35;;
71166;SDS011;58864;45.928;20.078;2022-07-04T11:31:50;3.80;;;1.50;;
71166;SDS011;58864;45.928;20.078;2022-07-04T11:34:15;3.40;;;1.35;;
71166;SDS011;58864;45.928;20.078;2022-07-04T11:36:41;3.33;;;1.25;;
71166;SDS011;58864;45.928;20.078;2022-07-04T11:39:07;3.73;;;1.40;;
71166;SDS011;58864;45.928;20.078;2022-07-04T11:41:40;3.25;;;1.33;;
71166;SDS011;58864;45.928;20.078;2022-07-04T11:44:25;2.70;;;1.00;;
71166;SDS011;58864;45.928;20.078;2022-07-04T11:47:19;3.03;;;1.10;;
71166;SDS011;58864;45.928;20.078;2022-07-04T11:49:47;3.00;;;1.13;;
71166;SDS011;58864;45.928;20.078;2022-07-04T11:52:20;3.23;;;1.30;;
71166;SDS011;58864;45.928;20.078;2022-07-04T11:54:47;3.88;;;1.20;;
71166;SDS011;58864;45.928;20.078;2022-07-04T11:59:36;3.30;;;1.37;;
71166;SDS011;58864;45.928;20.078;2022-07-04T12:02:14;4.83;;;1.47;;
71166;SDS011;58864;45.928;20.078;2022-07-04T12:04:40;3.30;;;1.45;;
71166;SDS011;58864;45.928;20.078;2022-07-04T12:07:09;3.22;;;1.30;;
71166;SDS011;58864;45.928;20.078;2022-07-04T12:09:41;3.38;;;1.50;;
71166;SDS011;58864;45.928;20.078;2022-07-04T12:12:07;3.38;;;1.42;;
71166;SDS011;58864;45.928;20.078;2022-07-04T12:14:31;2.80;;;1.20;;
71166;SDS011;58864;45.928;20.078;2022-07-04T12:17:16;3.53;;;1.20;;
71166;SDS011;58864;45.928;20.078;2022-07-04T12:19:51;3.50;;;1.50;;
71166;SDS011;58864;45.928;20.078;2022-07-04T12:24:49;3.20;;;1.40;;
71166;SDS011;58864;45.928;20.078;2022-07-04T12:27:17;2.97;;;1.20;;
71166;SDS011;58864;45.928;20.078;2022-07-04T12:29:49;3.40;;;1.30;;
71166;SDS011;58864;45.928;20.078;2022-07-04T12:32:14;4.00;;;1.35;;
71166;SDS011;58864;45.928;20.078;2022-07-04T12:34:38;3.40;;;1.40;;
71166;SDS011;58864;45.928;20.078;2022-07-04T12:37:06;3.60;;;1.50;;
71166;SDS011;58864;45.928;20.078;2022-07-04T12:39:32;3.40;;;1.40;;
71166;SDS011;58864;45.928;20.078;2022-07-04T12:42:12;3.57;;;1.57;;
71166;SDS011;58864;45.928;20.078;2022-07-04T12:44:44;3.22;;;1.30;;
71166;SDS011;58864;45.928;20.078;2022-07-04T12:47:09;3.50;;;1.42;;
71166;SDS011;58864;45.928;20.078;2022-07-04T12:49:35;4.28;;;2.20;;
71166;SDS011;58864;45.928;20.078;2022-07-04T12:52:04;3.57;;;1.50;;
71166;SDS011;58864;45.928;20.078;2022-07-04T12:54:36;3.20;;;1.38;;
71166;SDS011;58864;45.928;20.078;2022-07-04T12:57:03;3.50;;;1.42;;
71166;SDS011;58864;45.928;20.078;2022-07-04T12:59:29;3.47;;;1.50;;
71166;SDS011;58864;45.928;20.078;2022-07-04T13:01:53;4.57;;;1.50;;
71166;SDS011;58864;45.928;20.078;2022-07-04T13:04:18;3.20;;;1.40;;
71166;SDS011;58864;45.928;20.078;2022-07-04T13:06:42;3.60;;;1.50;;
71166;SDS011;58864;45.928;20.078;2022-07-04T13:09:07;3.80;;;1.60;;
71166;SDS011;58864;45.928;20.078;2022-07-04T13:11:32;3.25;;;1.38;;
71166;SDS011;58864;45.928;20.078;2022-07-04T13:14:16;3.33;;;1.45;;
71166;SDS011;58864;45.928;20.078;2022-07-04T13:16:41;3.80;;;1.40;;
71166;SDS011;58864;45.928;20.078;2022-07-04T13:19:06;3.50;;;1.40;;
71166;SDS011;58864;45.928;20.078;2022-07-04T13:21:30;5.13;;;1.73;;
71166;SDS011;58864;45.928;20.078;2022-07-04T13:23:55;3.07;;;1.30;;
71166;SDS011;58864;45.928;20.078;2022-07-04T13:26:19;3.65;;;1.58;;
71166;SDS011;58864;45.928;20.078;2022-07-04T13:28:44;3.80;;;1.60;;
71166;SDS011;58864;45.928;20.078;2022-07-04T13:31:09;3.90;;;1.55;;
71166;SDS011;58864;45.928;20.078;2022-07-04T13:33:33;4.30;;;1.60;;
71166;SDS011;58864;45.928;20.078;2022-07-04T13:35:58;3.63;;;1.63;;
71166;SDS011;58864;45.928;20.078;2022-07-04T13:38:22;3.70;;;1.52;;
71166;SDS011;58864;45.928;20.078;2022-07-04T13:40:47;3.07;;;1.37;;
71166;SDS011;58864;45.928;20.078;2022-07-04T13:43:11;3.47;;;1.43;;
71166;SDS011;58864;45.928;20.078;2022-07-04T13:45:37;4.30;;;1.50;;
71166;SDS011;58864;45.928;20.078;2022-07-04T13:48:05;3.97;;;1.60;;
71166;SDS011;58864;45.928;20.078;2022-07-04T13:50:30;5.70;;;1.58;;
71166;SDS011;58864;45.928;20.078;2022-07-04T13:52:55;4.47;;;1.70;;
71166;SDS011;58864;45.928;20.078;2022-07-04T13:55:19;3.53;;;1.60;;
71166;SDS011;58864;45.928;20.078;2022-07-04T13:57:44;3.50;;;1.70;;
71166;SDS011;58864;45.928;20.078;2022-07-04T14:00:09;3.47;;;1.60;;
71166;SDS011;58864;45.928;20.078;2022-07-04T14:02:34;3.40;;;1.52;;
71166;SDS011;58864;45.928;20.078;2022-07-04T14:04:58;3.60;;;1.63;;
71166;SDS011;58864;45.928;20.078;2022-07-04T14:07:23;3.08;;;1.20;;
71166;SDS011;58864;45.928;20.078;2022-07-04T14:09:47;3.50;;;1.57;;
71166;SDS011;58864;45.928;20.078;2022-07-04T14:12:12;3.20;;;1.27;;
71166;SDS011;58864;45.928;20.078;2022-07-04T14:14:36;3.27;;;1.57;;
71166;SDS011;58864;45.928;20.078;2022-07-04T14:17:01;3.27;;;1.43;;
71166;SDS011;58864;45.928;20.078;2022-07-04T14:19:25;5.07;;;1.60;;
71166;SDS011;58864;45.928;20.078;2022-07-04T14:21:50;3.67;;;1.40;;
71166;SDS011;58864;45.928;20.078;2022-07-04T14:24:15;3.40;;;1.40;;
71166;SDS011;58864;45.928;20.078;2022-07-04T14:26:41;3.47;;;1.30;;
71166;SDS011;58864;45.928;20.078;2022-07-04T14:29:06;4.07;;;1.60;;
71166;SDS011;58864;45.928;20.078;2022-07-04T14:31:30;3.67;;;1.73;;
71166;SDS011;58864;45.928;20.078;2022-07-04T14:33:55;3.85;;;1.60;;
71166;SDS011;58864;45.928;20.078;2022-07-04T14:36:20;3.50;;;1.50;;
71166;SDS011;58864;45.928;20.078;2022-07-04T14:38:44;3.38;;;1.40;;
71166;SDS011;58864;45.928;20.078;2022-07-04T14:41:09;3.40;;;1.50;;